Time;durP1;ratioP1;P1;durP2;ratioP2;P2;SDS_P1;SDS_P2;PMS_P1;PMS_P2;Temp;Humidity;BMP_temperature;BMP_pressure;BME280_temperature;BME280_humidity;BME280_pressure;Samples;Min_cycle;Max_cycle;Signal;HPM_P1;HPM_P2
2022/05/10 00:00:57;;;;;;;;;;;18.10;78.50;;;;;;4593957;19;19921;-23
2022/05/10 00:02:28;;;;;;;;;;;18.10;78.50;;;;;;4594225;19;19919;-21
2022/05/10 00:04:00;;;;;;;;;;;18.10;78.50;;;;;;4594519;19;19938;-24
2022/05/10 00:05:32;;;;;;;;;;;18.10;78.50;;;;;;4594280;19;19930;-24
2022/05/10 00:07:03;;;;;;;;;;;18.10;78.60;;;;;;4593805;19;19926;-27
2022/05/10 00:08:35;;;;;;;;;;;18.00;78.50;;;;;;4595320;19;19949;-22
2022/05/10 00:10:06;;;;;;;;;;;18.10;78.60;;;;;;4593341;19;19934;-24
2022/05/10 00:11:37;;;;;;;;;;;18.00;78.50;;;;;;4594965;19;19970;-23
2022/05/10 00:13:08;;;;;;;;;;;18.10;78.50;;;;;;4593992;19;20378;-22
2022/05/10 00:14:39;;;;;;;;;;;18.00;78.40;;;;;;4594522;19;19962;-21
2022/05/10 00:16:11;;;;;;;;;;;18.00;78.40;;;;;;4594382;19;19986;-24
2022/05/10 00:17:42;;;;;;;;;;;18.00;78.40;;;;;;4591869;19;19930;-24
2022/05/10 00:19:14;;;;;;;;;;;18.00;78.40;;;;;;4593761;19;20296;-24
2022/05/10 00:20:44;;;;;;;;;;;18.00;78.40;;;;;;4595715;19;19922;-22
2022/05/10 00:22:15;;;;;;;;;;;18.00;78.40;;;;;;4594633;19;19929;-23
2022/05/10 00:23:46;;;;;;;;;;;18.00;78.30;;;;;;4594081;19;19915;-24
2022/05/10 00:37:51;;;;;;;;;;;18.00;78.40;;;;;;4594149;19;20528;-22
2022/05/10 00:39:22;;;;;;;;;;;18.00;78.40;;;;;;4594934;19;20286;-23
2022/05/10 00:40:54;;;;;;;;;;;18.00;78.30;;;;;;4592814;19;19934;-22
2022/05/10 00:42:33;;;;;;;;;;;18.00;78.20;;;;;;4592498;19;19919;-21
2022/05/10 00:44:42;;;;;;;;;;;18.00;78.20;;;;;;4594753;19;19918;-26
2022/05/10 00:46:15;;;;;;;;;;;18.00;78.20;;;;;;4591867;19;20273;-23
2022/05/10 00:47:47;;;;;;;;;;;17.90;78.10;;;;;;4591245;19;19911;-25
2022/05/10 00:49:20;;;;;;;;;;;18.00;78.10;;;;;;4591642;19;19922;-21
2022/05/10 00:50:57;;;;;;;;;;;17.90;78.00;;;;;;4590175;19;19918;-21
2022/05/10 00:52:47;;;;;;;;;;;17.90;78.00;;;;;;4592451;19;20332;-22
2022/05/10 00:54:44;;;;;;;;;;;17.90;78.00;;;;;;4591313;19;20332;-23
2022/05/10 00:56:19;;;;;;;;;;;17.90;78.00;;;;;;4590573;19;20333;-24
2022/05/10 00:57:54;;;;;;;;;;;17.90;78.00;;;;;;4592391;19;19944;-21
2022/05/10 00:59:28;;;;;;;;;;;17.90;77.90;;;;;;4591395;19;19919;-26
2022/05/10 01:00:59;;;;;;;;;;;17.90;77.90;;;;;;4591587;19;19935;-25
2022/05/10 01:02:39;;;;;;;;;;;17.90;78.00;;;;;;4591495;19;19918;-25
2022/05/10 01:04:25;;;;;;;;;;;17.90;78.00;;;;;;4590216;19;20022;-21
2022/05/10 01:06:03;;;;;;;;;;;17.90;78.00;;;;;;4592309;19;20463;-21
2022/05/10 01:07:35;;;;;;;;;;;17.90;78.00;;;;;;4591300;19;19950;-21
2022/05/10 01:09:08;;;;;;;;;;;17.90;78.00;;;;;;4591664;19;19929;-24
2022/05/10 01:10:48;;;;;;;;;;;17.90;78.00;;;;;;4590209;19;19939;-22
2022/05/10 01:12:28;;;;;;;;;;;17.90;78.00;;;;;;4589237;19;19911;-24
2022/05/10 01:14:04;;;;;;;;;;;17.90;78.00;;;;;;4592459;19;19951;-22
2022/05/10 01:15:35;;;;;;;;;;;17.90;78.00;;;;;;4591362;19;19938;-20
2022/05/10 01:17:06;;;;;;;;;;;17.90;78.00;;;;;;4590809;19;19936;-21
2022/05/10 01:18:37;;;;;;;;;;;17.90;78.00;;;;;;4592895;19;19918;-21
2022/05/10 01:20:08;;;;;;;;;;;17.90;77.90;;;;;;4594136;19;20256;-22
2022/05/10 01:24:21;;;;;;;;;;;17.90;77.80;;;;;;4593395;19;19918;-21
2022/05/10 01:25:58;;;;;;;;;;;17.90;78.40;;;;;;4594202;19;19923;-23
2022/05/10 01:27:37;;;;;;;;;;;17.90;77.80;;;;;;4593462;19;19915;-21
2022/05/10 01:29:10;;;;;;;;;;;17.90;77.80;;;;;;4592035;19;20230;-27
2022/05/10 01:30:41;;;;;;;;;;;17.90;77.80;;;;;;4592561;19;19942;-24
2022/05/10 01:34:07;;;;;;;;;;;17.90;77.80;;;;;;4592815;19;19921;-24
2022/05/10 01:35:42;;;;;;;;;;;17.90;77.70;;;;;;4592657;19;19922;-24
2022/05/10 01:37:14;;;;;;;;;;;17.90;77.70;;;;;;4592492;19;19929;-23
2022/05/10 01:38:48;;;;;;;;;;;17.90;77.70;;;;;;4592046;19;19918;-25
2022/05/10 01:40:32;;;;;;;;;;;17.90;77.60;;;;;;4592502;19;19918;-25
2022/05/10 01:42:03;;;;;;;;;;;17.90;77.50;;;;;;4592372;19;19911;-20
2022/05/10 01:43:38;;;;;;;;;;;17.90;77.40;;;;;;4592662;19;19958;-23
2022/05/10 01:45:31;;;;;;;;;;;17.80;77.30;;;;;;4592211;19;19919;-23
2022/05/10 01:47:04;;;;;;;;;;;17.90;77.30;;;;;;4590627;19;19915;-24
2022/05/10 01:48:36;;;;;;;;;;;17.80;77.20;;;;;;4588461;19;20389;-23
2022/05/10 01:50:09;;;;;;;;;;;17.90;77.20;;;;;;4591310;19;19929;-21
2022/05/10 01:51:48;;;;;;;;;;;17.80;77.10;;;;;;4589486;19;19926;-23
2022/05/10 01:53:20;;;;;;;;;;;17.80;77.10;;;;;;4591085;19;19935;-21
2022/05/10 01:54:51;;;;;;;;;;;17.80;77.10;;;;;;4589864;19;19930;-21
2022/05/10 01:56:23;;;;;;;;;;;17.80;77.10;;;;;;4589470;19;19941;-23
2022/05/10 01:57:55;;;;;;;;;;;17.90;77.10;;;;;;4591291;19;19919;-26
2022/05/10 01:59:26;;;;;;;;;;;17.90;77.00;;;;;;4589390;19;19929;-22
2022/05/10 02:00:58;;;;;;;;;;;17.90;77.00;;;;;;4591045;19;19923;-21
2022/05/10 02:02:28;;;;;;;;;;;17.90;77.00;;;;;;4590331;19;20112;-25
2022/05/10 02:03:59;;;;;;;;;;;17.80;76.90;;;;;;4590825;19;19911;-21
2022/05/10 02:05:45;;;;;;;;;;;17.80;76.90;;;;;;4590029;19;19919;-24
2022/05/10 02:07:18;;;;;;;;;;;17.90;77.00;;;;;;4589359;19;20038;-25
2022/05/10 02:08:55;;;;;;;;;;;17.90;77.00;;;;;;4591321;19;19923;-21
2022/05/10 02:10:28;;;;;;;;;;;17.90;77.00;;;;;;4590216;19;19922;-23
2022/05/10 02:12:06;;;;;;;;;;;17.90;77.00;;;;;;4590733;19;20390;-24
2022/05/10 02:13:39;;;;;;;;;;;17.90;77.00;;;;;;4589863;19;20348;-23
2022/05/10 02:15:09;;;;;;;;;;;17.80;77.00;;;;;;4589327;19;20038;-24
2022/05/10 02:16:51;;;;;;;;;;;17.90;77.10;;;;;;4590599;19;19926;-23
2022/05/10 02:18:27;;;;;;;;;;;17.80;77.10;;;;;;4589879;19;19919;-22
2022/05/10 02:20:04;;;;;;;;;;;17.80;77.10;;;;;;4590684;19;19991;-23
2022/05/10 02:21:39;;;;;;;;;;;17.80;77.20;;;;;;4589563;19;19933;-23
2022/05/10 02:23:12;;;;;;;;;;;17.80;77.20;;;;;;4589909;19;19925;-23
2022/05/10 02:24:44;;;;;;;;;;;17.80;77.20;;;;;;4588265;19;19945;-26
2022/05/10 02:26:16;;;;;;;;;;;17.80;77.20;;;;;;4590642;19;20358;-22
2022/05/10 02:27:51;;;;;;;;;;;17.80;77.70;;;;;;4592270;19;19933;-23
2022/05/10 02:29:30;;;;;;;;;;;17.80;77.10;;;;;;4591484;19;19959;-21
2022/05/10 02:31:03;;;;;;;;;;;17.80;77.00;;;;;;4590820;19;19919;-21
2022/05/10 02:34:28;;;;;;;;;;;17.80;76.80;;;;;;4591538;19;19927;-20
2022/05/10 02:35:59;;;;;;;;;;;17.80;76.70;;;;;;4591485;19;19918;-24
2022/05/10 02:37:31;;;;;;;;;;;17.80;76.60;;;;;;4591309;19;19926;-24
2022/05/10 02:39:02;;;;;;;;;;;17.80;76.50;;;;;;4591534;19;19919;-25
2022/05/10 02:40:33;;;;;;;;;;;17.80;76.40;;;;;;4590689;19;19933;-23
2022/05/10 02:42:04;;;;;;;;;;;17.80;76.40;;;;;;4590876;19;19933;-24
2022/05/10 02:43:47;;;;;;;;;;;17.80;76.30;;;;;;4590493;19;19922;-23
2022/05/10 02:45:19;;;;;;;;;;;17.80;76.30;;;;;;4589450;19;19922;-23
2022/05/10 02:46:50;;;;;;;;;;;17.80;76.30;;;;;;4592071;19;20356;-21
2022/05/10 02:48:22;;;;;;;;;;;17.80;76.30;;;;;;4590182;19;19970;-24
2022/05/10 02:49:52;;;;;;;;;;;17.80;76.30;;;;;;4591808;19;19927;-22
2022/05/10 02:51:24;;;;;;;;;;;17.80;76.30;;;;;;4588869;19;19919;-24
2022/05/10 02:52:54;;;;;;;;;;;17.80;76.40;;;;;;4591848;19;19944;-25
2022/05/10 02:54:25;;;;;;;;;;;17.80;76.30;;;;;;4591098;19;19954;-23
2022/05/10 02:56:03;;;;;;;;;;;17.80;76.30;;;;;;4591859;19;19951;-23
2022/05/10 02:57:34;;;;;;;;;;;17.80;76.30;;;;;;4591370;19;19927;-23
2022/05/10 02:59:06;;;;;;;;;;;17.80;76.30;;;;;;4589939;19;19919;-24
2022/05/10 03:00:37;;;;;;;;;;;17.80;76.20;;;;;;4591391;19;19992;-25
2022/05/10 03:02:09;;;;;;;;;;;17.80;76.20;;;;;;4590554;19;19922;-23
2022/05/10 03:03:40;;;;;;;;;;;17.80;76.80;;;;;;4591152;19;19953;-24
2022/05/10 03:05:12;;;;;;;;;;;17.80;76.20;;;;;;4590866;19;19923;-24
2022/05/10 03:06:44;;;;;;;;;;;17.80;76.20;;;;;;4591924;19;19922;-23
2022/05/10 03:08:15;;;;;;;;;;;17.80;76.20;;;;;;4590892;19;19922;-23
2022/05/10 03:09:46;;;;;;;;;;;17.80;76.20;;;;;;4590094;19;20004;-22
2022/05/10 03:11:17;;;;;;;;;;;17.80;76.20;;;;;;4591266;19;19915;-21
2022/05/10 03:12:48;;;;;;;;;;;17.80;76.00;;;;;;4590870;19;19926;-24
2022/05/10 03:14:19;;;;;;;;;;;17.80;76.00;;;;;;4590821;19;19920;-22
2022/05/10 03:15:50;;;;;;;;;;;17.80;75.90;;;;;;4590947;19;19922;-23
2022/05/10 03:17:21;;;;;;;;;;;17.80;75.90;;;;;;4591403;19;19926;-22
2022/05/10 03:18:52;;;;;;;;;;;17.80;76.00;;;;;;4591207;19;19923;-21
2022/05/10 03:20:23;;;;;;;;;;;17.80;75.90;;;;;;4592006;19;19919;-22
2022/05/10 03:21:54;;;;;;;;;;;17.80;75.90;;;;;;4591232;19;19926;-22
2022/05/10 03:23:27;;;;;;;;;;;17.80;75.90;;;;;;4592075;19;19925;-24
2022/05/10 03:24:58;;;;;;;;;;;17.80;75.80;;;;;;4590878;19;19974;-24
2022/05/10 03:26:29;;;;;;;;;;;17.80;75.80;;;;;;4589924;19;19922;-26
2022/05/10 03:28:00;;;;;;;;;;;17.80;75.80;;;;;;4591377;19;19943;-20
2022/05/10 03:29:31;;;;;;;;;;;17.80;75.80;;;;;;4590932;19;20706;-21
2022/05/10 03:31:03;;;;;;;;;;;17.80;75.80;;;;;;4590303;19;19922;-23
2022/05/10 03:32:34;;;;;;;;;;;17.80;76.30;;;;;;4590751;19;19942;-23
2022/05/10 03:35:55;;;;;;;;;;;17.80;75.70;;;;;;4594866;19;19922;-28
2022/05/10 03:37:27;;;;;;;;;;;17.80;75.80;;;;;;4594688;19;20553;-24
2022/05/10 03:38:58;;;;;;;;;;;17.80;75.90;;;;;;4596299;19;19949;-23
2022/05/10 03:40:29;;;;;;;;;;;17.80;75.90;;;;;;4595321;19;19978;-24
2022/05/10 03:42:00;;;;;;;;;;;17.80;76.00;;;;;;4596088;19;19915;-24
2022/05/10 03:43:31;;;;;;;;;;;17.80;76.00;;;;;;4595045;19;19919;-22
2022/05/10 03:45:01;;;;;;;;;;;17.80;76.10;;;;;;4593676;19;19919;-25
2022/05/10 03:46:33;;;;;;;;;;;17.80;76.20;;;;;;4595116;19;20333;-21
2022/05/10 03:48:04;;;;;;;;;;;17.80;76.20;;;;;;4594413;19;19919;-24
2022/05/10 03:49:35;;;;;;;;;;;17.80;76.20;;;;;;4594390;19;19918;-25
2022/05/10 03:51:05;;;;;;;;;;;17.80;76.20;;;;;;4593170;19;20340;-24
2022/05/10 03:52:38;;;;;;;;;;;17.80;76.20;;;;;;4596252;19;19982;-24
2022/05/10 03:54:08;;;;;;;;;;;17.80;76.30;;;;;;4594391;19;19986;-22
2022/05/10 03:55:39;;;;;;;;;;;17.80;76.30;;;;;;4595627;19;19922;-24
2022/05/10 03:57:10;;;;;;;;;;;17.80;76.40;;;;;;4594771;19;20242;-24
2022/05/10 03:58:41;;;;;;;;;;;17.80;76.40;;;;;;4596038;19;19922;-22
2022/05/10 04:00:14;;;;;;;;;;;17.80;76.40;;;;;;4594820;19;19922;-26
2022/05/10 04:01:45;;;;;;;;;;;17.80;76.40;;;;;;4595092;19;19922;-24
2022/05/10 04:03:16;;;;;;;;;;;17.90;76.50;;;;;;4595581;19;19926;-23
2022/05/10 04:04:47;;;;;;;;;;;17.90;76.50;;;;;;4594178;19;20299;-21
2022/05/10 04:06:18;;;;;;;;;;;17.90;76.50;;;;;;4595608;19;19925;-23
2022/05/10 04:07:49;;;;;;;;;;;17.80;76.50;;;;;;4594648;19;19919;-25
2022/05/10 04:09:20;;;;;;;;;;;17.90;76.60;;;;;;4595300;19;20242;-22
2022/05/10 04:10:51;;;;;;;;;;;17.90;76.70;;;;;;4593533;19;19994;-22
2022/05/10 04:12:22;;;;;;;;;;;17.90;76.80;;;;;;4594041;19;19919;-23
2022/05/10 04:13:52;;;;;;;;;;;17.90;76.90;;;;;;4594871;19;20377;-23
2022/05/10 04:15:24;;;;;;;;;;;17.90;76.90;;;;;;4594524;19;20896;-24
2022/05/10 04:16:56;;;;;;;;;;;17.90;76.90;;;;;;4594390;19;20001;-24
2022/05/10 04:18:27;;;;;;;;;;;17.90;77.10;;;;;;4595108;19;19915;-24
2022/05/10 04:19:58;;;;;;;;;;;17.90;77.00;;;;;;4594800;19;20373;-24
2022/05/10 04:21:29;;;;;;;;;;;17.90;77.10;;;;;;4593805;19;19945;-23
2022/05/10 04:23:00;;;;;;;;;;;17.90;77.10;;;;;;4595060;19;20271;-24
2022/05/10 04:24:31;;;;;;;;;;;18.00;77.80;;;;;;4594253;19;19926;-24
2022/05/10 04:26:03;;;;;;;;;;;17.90;77.30;;;;;;4595022;19;19910;-21
2022/05/10 04:27:35;;;;;;;;;;;18.00;77.40;;;;;;4593690;19;19961;-21
2022/05/10 04:29:06;;;;;;;;;;;18.00;77.50;;;;;;4594477;19;19923;-21
2022/05/10 04:30:37;;;;;;;;;;;18.00;77.50;;;;;;4593242;19;19950;-23
2022/05/10 04:32:08;;;;;;;;;;;18.00;77.70;;;;;;4593946;19;19922;-27
2022/05/10 04:33:39;;;;;;;;;;;18.00;77.70;;;;;;4593806;19;19919;-23
2022/05/10 04:35:10;;;;;;;;;;;18.00;77.90;;;;;;4593964;19;19911;-23
2022/05/10 04:36:41;;;;;;;;;;;18.00;78.00;;;;;;4594768;19;20271;-24
2022/05/10 04:38:12;;;;;;;;;;;18.00;78.10;;;;;;4594494;19;19922;-23
2022/05/10 04:41:33;;;;;;;;;;;18.10;78.30;;;;;;4595183;19;19918;-22
2022/05/10 04:43:05;;;;;;;;;;;18.10;78.40;;;;;;4593751;19;19926;-23
2022/05/10 04:44:36;;;;;;;;;;;18.00;78.40;;;;;;4595114;19;19967;-23
2022/05/10 04:46:06;;;;;;;;;;;18.00;78.50;;;;;;4593319;19;19934;-24
2022/05/10 04:47:38;;;;;;;;;;;18.00;78.60;;;;;;4592601;19;20329;-21
2022/05/10 04:49:10;;;;;;;;;;;18.10;78.70;;;;;;4592792;19;19922;-24
2022/05/10 04:50:41;;;;;;;;;;;18.10;78.80;;;;;;4594070;19;19918;-21
2022/05/10 04:52:12;;;;;;;;;;;18.10;78.90;;;;;;4593305;19;19915;-21
2022/05/10 04:53:43;;;;;;;;;;;18.10;78.90;;;;;;4595054;19;19934;-21
2022/05/10 04:55:13;;;;;;;;;;;18.10;79.00;;;;;;4594051;19;19941;-21
2022/05/10 04:56:44;;;;;;;;;;;18.10;79.00;;;;;;4594033;19;20356;-25
2022/05/10 04:58:15;;;;;;;;;;;18.10;79.10;;;;;;4594719;19;19937;-22
2022/05/10 04:59:46;;;;;;;;;;;18.10;79.20;;;;;;4593488;19;19923;-25
2022/05/10 05:01:17;;;;;;;;;;;18.10;79.30;;;;;;4593123;19;19927;-23
2022/05/10 05:02:48;;;;;;;;;;;18.10;79.30;;;;;;4593474;19;19923;-20
2022/05/10 05:04:19;;;;;;;;;;;18.10;79.30;;;;;;4593893;19;19933;-23
2022/05/10 05:05:50;;;;;;;;;;;18.20;79.40;;;;;;4592917;19;19933;-24
2022/05/10 05:07:21;;;;;;;;;;;18.10;79.40;;;;;;4592676;19;19927;-24
2022/05/10 05:08:52;;;;;;;;;;;18.20;79.40;;;;;;4591917;19;19986;-23
2022/05/10 05:10:23;;;;;;;;;;;18.20;79.50;;;;;;4591934;19;20329;-23
2022/05/10 05:11:56;;;;;;;;;;;18.20;79.50;;;;;;4593622;19;19978;-21
2022/05/10 05:13:27;;;;;;;;;;;18.20;79.50;;;;;;4590726;19;19938;-24
2022/05/10 05:14:58;;;;;;;;;;;18.20;79.50;;;;;;4591814;19;19941;-24
2022/05/10 05:16:29;;;;;;;;;;;18.30;79.60;;;;;;4592173;19;19925;-25
2022/05/10 05:18:03;;;;;;;;;;;18.30;79.60;;;;;;4592254;19;19926;-24
2022/05/10 05:19:34;;;;;;;;;;;18.20;79.50;;;;;;4591723;19;19970;-24
2022/05/10 05:21:04;;;;;;;;;;;18.30;79.60;;;;;;4592681;19;20341;-21
2022/05/10 05:22:35;;;;;;;;;;;18.30;79.70;;;;;;4592950;19;19926;-23
2022/05/10 05:24:08;;;;;;;;;;;18.30;79.70;;;;;;4591888;19;19929;-23
2022/05/10 05:25:39;;;;;;;;;;;18.30;79.70;;;;;;4592527;19;19922;-24
2022/05/10 05:27:10;;;;;;;;;;;18.30;79.70;;;;;;4592381;19;20483;-23
2022/05/10 05:28:41;;;;;;;;;;;18.30;79.70;;;;;;4593503;19;19925;-26
2022/05/10 05:30:12;;;;;;;;;;;18.30;79.70;;;;;;4592074;19;19931;-23
2022/05/10 05:31:43;;;;;;;;;;;18.30;79.70;;;;;;4593037;19;20248;-23
2022/05/10 05:33:14;;;;;;;;;;;18.30;79.70;;;;;;4594144;19;19926;-24
2022/05/10 05:34:45;;;;;;;;;;;18.40;79.70;;;;;;4593695;19;20306;-24
2022/05/10 05:36:16;;;;;;;;;;;18.40;79.70;;;;;;4593414;19;19931;-22
2022/05/10 05:37:47;;;;;;;;;;;18.40;79.70;;;;;;4593860;19;19914;-25
2022/05/10 05:39:18;;;;;;;;;;;18.50;79.70;;;;;;4593601;19;19930;-23
2022/05/10 05:40:49;;;;;;;;;;;18.40;79.50;;;;;;4593878;19;19915;-23
2022/05/10 05:42:20;;;;;;;;;;;18.50;79.40;;;;;;4592718;19;19925;-21
2022/05/10 05:43:51;;;;;;;;;;;18.60;79.30;;;;;;4594243;19;19923;-23
2022/05/10 05:45:22;;;;;;;;;;;17.40;78.90;;;;;;4593425;19;19919;-24
2022/05/10 05:49:17;;;;;;;10.98;8.07;;;15.40;81.40;;;;;;4592831;19;19941;-25
2022/05/10 05:50:49;;;;;;;12.00;8.90;;;14.80;83.10;;;;;;4591120;19;20018;-24
2022/05/10 05:52:22;;;;;;;11.20;8.57;;;14.60;85.20;;;;;;4591344;19;20014;-26
2022/05/10 05:53:52;;;;;;;10.67;8.80;;;14.40;84.90;;;;;;4592139;19;20345;-23
2022/05/10 05:55:24;;;;;;;10.38;7.75;;;14.40;84.20;;;;;;4593475;19;20346;-26
2022/05/10 05:57:05;;;;;;;11.13;8.20;;;14.30;83.90;;;;;;4591785;19;20003;-24
2022/05/10 05:58:37;;;;;;;10.60;8.43;;;14.30;84.10;;;;;;4593547;19;20014;-26
2022/05/10 06:00:11;;;;;;;9.67;7.47;;;14.30;86.20;;;;;;4591324;19;20038;-27
2022/05/10 06:01:42;;;;;;;9.50;7.77;;;14.20;85.50;;;;;;4593875;19;20022;-25
2022/05/10 06:03:14;;;;;;;11.20;7.82;;;14.20;85.70;;;;;;4593043;19;20035;-25
2022/05/10 06:04:45;;;;;;;9.55;6.95;;;14.30;86.90;;;;;;4592206;19;20014;-25
2022/05/10 06:06:16;;;;;;;;;;;14.30;85.70;;;;;;4592501;19;20405;-26
2022/05/10 06:07:47;;;;;;;;;;;14.30;85.10;;;;;;4592398;19;19919;-25
2022/05/10 06:09:22;;;;;;;;;;;14.30;85.10;;;;;;4593638;19;19911;-26
2022/05/10 06:10:55;;;;;;;;;;;14.20;83.80;;;;;;4594104;19;19915;-26
2022/05/10 06:12:25;;;;;;;;;;;14.30;83.80;;;;;;4592920;19;19914;-25
2022/05/10 06:13:57;;;;;;;;;;;14.30;84.70;;;;;;4593091;19;19911;-25
2022/05/10 06:15:28;;;;;;;;;;;14.30;85.00;;;;;;4589833;19;20377;-28
2022/05/10 06:16:59;;;;;;;;;;;14.30;84.20;;;;;;4590559;19;19961;-25
2022/05/10 06:18:30;;;;;;;;;;;14.30;85.80;;;;;;4592420;19;19948;-27
2022/05/10 06:20:01;;;;;;;;;;;14.30;84.90;;;;;;4592818;19;19922;-30
2022/05/10 06:21:32;;;;;;;7.45;5.72;;;14.40;83.50;;;;;;4592233;19;19982;-25
2022/05/10 06:23:04;;;;;;;6.40;4.97;;;14.40;81.20;;;;;;4591211;19;20007;-25
2022/05/10 06:24:35;;;;;;;;;;;14.40;82.40;;;;;;4592418;19;19998;-25
2022/05/10 06:26:06;;;;;;;9.37;7.30;;;14.50;83.40;;;;;;4591048;19;19922;-23
2022/05/10 06:27:37;;;;;;;9.15;7.55;;;14.40;85.10;;;;;;4591445;19;20467;-23
2022/05/10 06:29:08;;;;;;;9.20;7.20;;;14.50;85.80;;;;;;4591843;19;20066;-25
2022/05/10 06:30:39;;;;;;;8.63;6.30;;;14.50;84.40;;;;;;4590166;19;20010;-27
2022/05/10 06:32:11;;;;;;;8.50;6.18;;;14.50;81.90;;;;;;4590761;19;20019;-23
2022/05/10 06:33:42;;;;;;;8.77;6.40;;;14.50;82.80;;;;;;4591380;19;20014;-24
2022/05/10 06:35:14;;;;;;;9.13;7.43;;;14.50;85.30;;;;;;4592939;19;20517;-25
2022/05/10 06:36:45;;;;;;;;;;;14.50;84.70;;;;;;4593527;19;20010;-26
2022/05/10 06:38:16;;;;;;;8.67;5.53;;;14.50;83.90;;;;;;4593351;19;19974;-26
2022/05/10 06:39:47;;;;;;;7.15;5.18;;;14.50;82.80;;;;;;4591430;19;20010;-23
2022/05/10 06:41:18;;;;;;;9.25;5.50;;;14.50;83.00;;;;;;4591538;19;20019;-23
2022/05/10 06:42:49;;;;;;;8.50;5.53;;;14.50;84.70;;;;;;4591350;19;20010;-26
2022/05/10 06:44:20;;;;;;;8.52;5.32;;;14.50;84.80;;;;;;4590838;19;20396;-25
2022/05/10 06:45:53;;;;;;;6.93;4.53;;;14.60;82.80;;;;;;4592460;19;20014;-25
2022/05/10 06:47:25;;;;;;;6.70;5.27;;;14.50;84.20;;;;;;4592458;19;20129;-26
2022/05/10 06:48:56;;;;;;;6.35;4.78;;;14.50;83.20;;;;;;4590306;19;20445;-30
2022/05/10 06:50:27;;;;;;;7.15;4.78;;;14.60;82.70;;;;;;4591231;19;20457;-27
2022/05/10 06:51:59;;;;;;;7.00;4.73;;;14.60;82.60;;;;;;4591342;19;20018;-26
2022/05/10 06:53:30;;;;;;;6.65;4.72;;;14.70;82.50;;;;;;4591081;19;20014;-27
2022/05/10 06:55:02;;;;;;;6.63;4.50;;;14.70;85.40;;;;;;4592010;19;20015;-25
2022/05/10 06:56:33;;;;;;;4.60;2.75;;;14.70;82.70;;;;;;4591917;19;20007;-26
2022/05/10 06:58:04;;;;;;;4.47;2.55;;;14.70;80.70;;;;;;4590858;19;20074;-25
2022/05/10 06:59:36;;;;;;;4.40;2.90;;;14.70;81.50;;;;;;4589309;19;20077;-25
2022/05/10 07:01:11;;;;;;;3.10;2.40;;;14.70;81.20;;;;;;4589965;19;20037;-25
2022/05/10 07:02:42;;;;;;;4.40;2.60;;;14.80;80.10;;;;;;4590354;19;20376;-26
2022/05/10 07:04:14;;;;;;;4.50;2.33;;;14.70;81.50;;;;;;4591163;19;20489;-25
2022/05/10 07:05:46;;;;;;;3.00;1.85;;;14.70;82.50;;;;;;4586182;19;20018;-27
2022/05/10 07:07:17;;;;;;;3.10;1.70;;;14.70;81.60;;;;;;4588595;19;20014;-25
2022/05/10 07:08:48;;;;;;;2.25;1.42;;;14.70;80.00;;;;;;4589617;19;20014;-30
2022/05/10 07:10:20;;;;;;;2.67;1.50;;;14.70;82.10;;;;;;4586806;19;20024;-27
2022/05/10 07:11:51;;;;;;;2.80;1.52;;;14.70;79.60;;;;;;4587631;19;20007;-24
2022/05/10 07:13:24;;;;;;;2.40;1.50;;;14.70;81.00;;;;;;4588804;19;20488;-26
2022/05/10 07:14:55;;;;;;;2.83;1.70;;;14.70;80.60;;;;;;4589723;19;20018;-28
2022/05/10 07:16:26;;;;;;;2.63;1.73;;;14.70;79.30;;;;;;4589709;19;20017;-25
2022/05/10 07:17:57;;;;;;;2.45;1.40;;;14.70;80.20;;;;;;4590264;19;20037;-25
2022/05/10 07:19:28;;;;;;;2.70;1.85;;;14.70;81.30;;;;;;4591010;19;20014;-25
2022/05/10 07:21:02;;;;;;;2.83;1.55;;;14.70;82.10;;;;;;4591452;19;20006;-25
2022/05/10 07:22:33;;;;;;;3.13;1.53;;;14.70;82.30;;;;;;4589481;19;20022;-25
2022/05/10 07:24:07;;;;;;;1.88;1.35;;;14.80;80.80;;;;;;4590984;19;20483;-25
2022/05/10 07:25:39;;;;;;;3.17;1.80;;;14.70;82.10;;;;;;4590048;19;20015;-27
2022/05/10 07:27:10;;;;;;;3.47;1.77;;;14.80;81.70;;;;;;4588750;19;20034;-29
2022/05/10 07:28:41;;;;;;;3.90;2.20;;;14.80;83.20;;;;;;4589001;19;20010;-26
2022/05/10 07:30:14;;;;;;;3.38;1.60;;;14.70;81.30;;;;;;4590217;19;20029;-25
2022/05/10 07:31:45;;;;;;;2.23;1.50;;;14.80;80.30;;;;;;4588747;19;20022;-26
2022/05/10 07:33:19;;;;;;;3.33;2.05;;;14.80;79.60;;;;;;4588685;19;20026;-24
2022/05/10 07:34:50;;;;;;;3.07;1.87;;;14.70;80.30;;;;;;4589165;19;20480;-26
2022/05/10 07:36:23;;;;;;;;;;;14.70;80.30;;;;;;4589548;19;20019;-24
2022/05/10 07:37:54;;;;;;;;;;;14.80;81.10;;;;;;4590678;19;19915;-26
2022/05/10 07:39:26;;;;;;;;;;;14.80;80.80;;;;;;4590950;19;20237;-27
2022/05/10 07:40:57;;;;;;;;;;;14.80;80.50;;;;;;4592271;19;19922;-23
2022/05/10 07:42:28;;;;;;;;;;;14.80;81.00;;;;;;4591936;19;19919;-26
2022/05/10 07:43:59;;;;;;;;;;;14.80;80.70;;;;;;4591197;19;19919;-25
2022/05/10 07:45:30;;;;;;;;;;;14.80;81.30;;;;;;4590045;19;19919;-27
2022/05/10 07:47:02;;;;;;;;;;;14.80;82.80;;;;;;4590256;19;19922;-26
2022/05/10 07:48:34;;;;;;;;;;;14.80;80.80;;;;;;4590822;19;19919;-26
2022/05/10 07:50:07;;;;;;;;;;;14.80;80.60;;;;;;4592642;19;19923;-26
2022/05/10 07:51:38;;;;;;;;;;;14.80;81.30;;;;;;4590393;19;20320;-25
2022/05/10 07:53:12;;;;;;;;;;;14.80;82.40;;;;;;4591378;19;20002;-28
2022/05/10 07:54:44;;;;;;;;;;;14.80;81.90;;;;;;4590475;19;19919;-26
2022/05/10 07:56:15;;;;;;;;;;;14.80;81.30;;;;;;4590599;19;19915;-23
2022/05/10 07:57:46;;;;;;;;;;;14.80;82.50;;;;;;4589000;19;19934;-24
2022/05/10 07:59:17;;;;;;;;;;;14.80;82.20;;;;;;4589806;19;19918;-26
2022/05/10 08:00:48;;;;;;;;;;;14.80;81.10;;;;;;4589982;19;19930;-24
2022/05/10 08:02:19;;;;;;;;;;;14.80;82.00;;;;;;4590437;19;20351;-27
2022/05/10 08:03:50;;;;;;;;;;;14.80;86.60;;;;;;4590271;19;19918;-25
2022/05/10 08:05:25;;;;;;;;;;;14.80;85.00;;;;;;4590269;19;19915;-24
2022/05/10 08:06:56;;;;;;;3.00;1.63;;;15.10;86.30;;;;;;4589498;19;19934;-26
2022/05/10 08:08:28;;;;;;;;;;;15.60;86.00;;;;;;4588642;19;20014;-25
2022/05/10 08:09:59;;;;;;;;;;;16.00;84.70;;;;;;4589328;19;20011;-26
2022/05/10 08:11:30;;;;;;;2.70;1.38;;;16.30;84.90;;;;;;4588338;19;19915;-25
2022/05/10 08:13:01;;;;;;;2.63;1.38;;;16.60;83.00;;;;;;4589170;19;19999;-25
2022/05/10 08:14:33;;;;;;;2.80;1.50;;;16.80;82.50;;;;;;4588727;19;20029;-26
2022/05/10 08:16:04;;;;;;;3.05;1.55;;;17.10;82.30;;;;;;4588942;19;20017;-26
2022/05/10 08:17:36;;;;;;;2.80;1.35;;;17.30;81.40;;;;;;4587709;19;20032;-26
2022/05/10 08:19:07;;;;;;;;;;;17.50;80.40;;;;;;4589221;19;19999;-23
2022/05/10 08:20:38;;;;;;;;;;;17.60;80.40;;;;;;4589804;19;19915;-30
2022/05/10 08:22:09;;;;;;;;;;;17.70;80.30;;;;;;4590640;19;19930;-27
2022/05/10 08:23:41;;;;;;;;;;;17.90;79.90;;;;;;4594577;19;19978;-24
2022/05/10 08:25:12;;;;;;;;;;;18.00;78.60;;;;;;4594024;19;19926;-24
2022/05/10 08:26:43;;;;;;;;;;;18.10;79.10;;;;;;4594135;19;19923;-25
2022/05/10 08:28:14;;;;;;;;;;;18.10;78.50;;;;;;4594536;19;19918;-25
2022/05/10 08:29:45;;;;;;;;;;;18.20;77.90;;;;;;4594709;19;20309;-26
2022/05/10 08:31:16;;;;;;;;;;;18.30;79.10;;;;;;4593624;19;19910;-25
2022/05/10 08:32:47;;;;;;;;;;;18.40;76.90;;;;;;4594558;19;19928;-27
2022/05/10 08:34:19;;;;;;;;;;;18.40;77.00;;;;;;4594429;19;19911;-25
2022/05/10 08:35:51;;;;;;;;;;;18.50;77.70;;;;;;4594712;19;19929;-27
2022/05/10 08:37:21;;;;;;;;;;;18.60;77.00;;;;;;4593940;19;20360;-27
2022/05/10 08:38:54;;;;;;;;;;;18.60;76.30;;;;;;4593999;19;19919;-27
2022/05/10 08:40:29;;;;;;;;;;;18.70;76.50;;;;;;4594676;19;19918;-25
2022/05/10 08:42:02;;;;;;;;;;;18.70;77.40;;;;;;4594582;19;20245;-27
2022/05/10 08:43:34;;;;;;;;;;;18.80;76.50;;;;;;4593944;19;19937;-25
2022/05/10 08:45:06;;;;;;;;;;;18.90;76.10;;;;;;4593939;19;19914;-26
2022/05/10 08:46:37;;;;;;;;;;;18.90;76.10;;;;;;4593732;19;19941;-24
2022/05/10 08:48:10;;;;;;;;;;;18.90;75.40;;;;;;4594297;19;19951;-25
2022/05/10 08:49:43;;;;;;;;;;;19.00;77.00;;;;;;4594045;19;20364;-26
2022/05/10 08:51:15;;;;;;;;;;;19.00;76.60;;;;;;4592449;19;19911;-27
2022/05/10 08:52:46;;;;;;;;;;;19.10;76.30;;;;;;4593953;19;19914;-27
2022/05/10 08:54:18;;;;;;;;;;;19.10;75.30;;;;;;4594124;19;19926;-26
2022/05/10 08:55:54;;;;;;;;;;;19.20;75.70;;;;;;4593849;19;20321;-26
2022/05/10 08:57:43;;;;;;;;;;;19.20;75.40;;;;;;4592557;19;19915;-29
2022/05/10 08:59:32;;;;;;;;;;;19.10;75.40;;;;;;4594031;19;19915;-26
2022/05/10 09:01:07;;;;;;;;;;;19.10;75.40;;;;;;4593797;19;20312;-24
2022/05/10 09:02:48;;;;;;;;;;;19.20;75.60;;;;;;4593301;19;19914;-24
2022/05/10 09:04:39;;;;;;;;;;;19.20;75.40;;;;;;4592497;19;19918;-24
2022/05/10 09:06:34;;;;;;;;;;;19.10;75.40;;;;;;4592857;19;20307;-25
2022/05/10 09:08:12;;;;;;;;;;;19.10;75.40;;;;;;4592736;19;19919;-27
2022/05/10 09:09:49;;;;;;;;;;;19.10;75.50;;;;;;4592481;19;19945;-26
2022/05/10 09:11:21;;;;;;;;;;;19.20;75.90;;;;;;4591909;19;19915;-28
2022/05/10 09:12:52;;;;;;;;;;;19.20;75.70;;;;;;4592268;19;19991;-23